National Weather Service Raw Text Product

Displaying AFOS PIL: TAFOTM Received: 2018-01-12 11:32 UTC


465 
FTUS43 KDMX 121132
TAFOTM
TAF
KOTM 121132Z 1212/1312 33016KT P6SM SKC
     FM130300 35014KT P6SM BKN090=